Time;durP1;ratioP1;P1;durP2;ratioP2;P2;SDS_P1;SDS_P2;PMS_P1;PMS_P2;Temp;Humidity;BMP_temperature;BMP_pressure;BME280_temperature;BME280_humidity;BME280_pressure;Samples;Min_cycle;Max_cycle;Signal;HPM_P1;HPM_P2
2021/04/03 00:00:38;;;;;;;4.45;2.65;;;2.30;99.90;;;;;;4339087;32;20544;-59
2021/04/03 00:03:06;;;;;;;4.00;2.30;;;2.50;99.90;;;;;;4327416;32;20133;-61
2021/04/03 00:05:32;;;;;;;3.12;2.37;;;2.50;99.90;;;;;;4339159;32;20505;-60
2021/04/03 00:07:58;;;;;;;4.72;3.28;;;2.50;99.90;;;;;;4332801;32;20513;-61
2021/04/03 00:10:29;;;;;;;3.17;2.10;;;2.60;99.90;;;;;;4342423;32;20093;-60
2021/04/03 00:12:56;;;;;;;3.70;2.20;;;2.50;99.90;;;;;;4335313;32;20513;-60
2021/04/03 00:15:23;;;;;;;5.53;2.25;;;2.50;99.90;;;;;;4351033;32;20074;-60
2021/04/03 00:17:49;;;;;;;6.22;2.30;;;2.40;99.90;;;;;;4351099;32;20081;-60
2021/04/03 00:20:17;;;;;;;4.78;2.40;;;2.40;99.90;;;;;;4338433;32;20552;-61
2021/04/03 00:22:43;;;;;;;3.97;2.40;;;2.40;99.90;;;;;;4350762;32;20496;-61
2021/04/03 00:25:11;;;;;;;5.30;2.40;;;2.40;99.90;;;;;;4326480;32;20070;-61
2021/04/03 00:27:37;;;;;;;5.45;2.40;;;2.20;99.90;;;;;;4359943;32;20070;-62
2021/04/03 00:30:15;;;;;;;3.30;2.10;;;2.20;99.90;;;;;;4346578;32;20066;-60
2021/04/03 00:32:46;;;;;;;5.03;2.20;;;2.20;99.90;;;;;;4352994;32;20082;-60
2021/04/03 00:35:14;;;;;;;3.45;2.35;;;2.20;99.90;;;;;;4326639;32;20070;-60
2021/04/03 00:37:41;;;;;;;3.50;2.33;;;2.20;99.90;;;;;;4337955;32;20070;-60
2021/04/03 00:40:14;;;;;;;4.10;2.12;;;2.10;99.90;;;;;;4338821;32;20444;-62
2021/04/03 00:42:42;;;;;;;4.87;2.35;;;2.10;99.90;;;;;;4350922;32;20530;-61
2021/04/03 00:45:09;;;;;;;3.03;2.25;;;2.20;99.90;;;;;;4338734;32;20078;-60
2021/04/03 00:47:35;;;;;;;3.05;2.12;;;2.20;99.90;;;;;;4350708;32;20070;-60
2021/04/03 00:50:02;;;;;;;3.25;2.20;;;2.10;99.90;;;;;;4339275;32;20232;-62
2021/04/03 00:52:28;;;;;;;4.07;2.53;;;2.20;99.90;;;;;;4335489;32;20054;-62
2021/04/03 00:54:54;;;;;;;3.65;2.28;;;2.20;99.90;;;;;;4344428;32;20598;-61
2021/04/03 00:57:21;;;;;;;4.37;2.10;;;2.20;99.90;;;;;;4347835;32;20068;-60
2021/04/03 00:59:47;;;;;;;4.45;2.08;;;2.10;99.90;;;;;;4335535;32;20070;-60
2021/04/03 01:02:13;;;;;;;3.20;2.15;;;2.00;99.90;;;;;;4328099;32;20237;-60
2021/04/03 01:04:39;;;;;;;7.70;2.60;;;2.00;99.90;;;;;;4345633;32;20513;-61
2021/04/03 01:07:05;;;;;;;3.08;2.20;;;1.90;99.90;;;;;;4349905;32;20174;-60
2021/04/03 01:09:38;;;;;;;5.25;2.60;;;1.90;99.90;;;;;;4336979;32;20073;-60
2021/04/03 01:12:32;;;;;;;5.55;2.30;;;2.00;99.90;;;;;;4328300;32;20093;-60
2021/04/03 01:15:18;;;;;;;4.22;2.37;;;2.10;99.90;;;;;;4349004;32;20078;-60
2021/04/03 01:18:09;;;;;;;2.70;2.10;;;2.00;99.90;;;;;;4349157;32;20085;-62
2021/04/03 01:21:06;;;;;;;5.40;2.50;;;2.00;99.90;;;;;;4346697;32;20085;-61
2021/04/03 01:23:35;;;;;;;4.32;2.35;;;1.90;99.90;;;;;;4336864;32;20602;-61
2021/04/03 01:26:26;;;;;;;3.20;2.35;;;2.00;99.90;;;;;;4335352;32;20078;-59
2021/04/03 01:29:31;;;;;;;4.60;2.35;;;2.00;99.90;;;;;;4347511;32;20085;-61
2021/04/03 01:31:57;;;;;;;3.10;2.30;;;2.10;99.90;;;;;;4347393;32;20090;-61
2021/04/03 01:34:28;;;;;;;3.70;2.20;;;2.00;99.90;;;;;;4337872;32;20605;-60
2021/04/03 01:37:05;;;;;;;2.97;2.30;;;1.90;99.90;;;;;;4322533;32;20080;-60
2021/04/03 01:39:34;;;;;;;3.50;2.25;;;1.90;99.90;;;;;;4323483;32;20517;-59
2021/04/03 01:42:03;;;;;;;3.87;2.20;;;2.10;99.90;;;;;;4329145;32;20165;-61
2021/04/03 01:44:36;;;;;;;4.20;2.30;;;2.10;99.90;;;;;;4325700;32;20524;-62
2021/04/03 01:47:02;;;;;;;8.40;2.50;;;2.00;99.90;;;;;;4337921;32;20058;-61
2021/04/03 01:49:28;;;;;;;3.37;2.50;;;2.00;99.90;;;;;;4311434;32;20521;-61
2021/04/03 01:51:55;;;;;;;5.12;2.37;;;2.00;99.90;;;;;;4338685;32;20165;-61
2021/04/03 01:54:22;;;;;;;3.90;2.55;;;2.10;99.90;;;;;;4337931;32;20078;-61
2021/04/03 01:56:49;;;;;;;2.90;2.12;;;2.10;99.90;;;;;;4335276;32;20173;-60
2021/04/03 01:59:15;;;;;;;3.75;2.30;;;2.10;99.90;;;;;;4325081;32;20078;-60
2021/04/03 02:01:43;;;;;;;3.60;2.37;;;2.00;99.90;;;;;;4349862;32;20489;-60
2021/04/03 02:04:14;;;;;;;4.12;2.60;;;2.00;99.90;;;;;;4337504;32;20163;-61
2021/04/03 02:06:44;;;;;;;3.15;2.10;;;2.00;99.90;;;;;;4337350;32;20178;-60
2021/04/03 02:09:12;;;;;;;3.85;2.53;;;1.90;99.90;;;;;;4325559;32;20101;-60
2021/04/03 02:11:41;;;;;;;5.00;2.78;;;1.90;99.90;;;;;;4325125;32;20090;-60
2021/04/03 02:14:08;;;;;;;5.10;2.72;;;2.00;99.90;;;;;;4348317;32;20066;-61
2021/04/03 02:16:35;;;;;;;3.50;2.50;;;2.10;99.90;;;;;;4349632;32;20529;-60
2021/04/03 02:19:07;;;;;;;4.30;2.40;;;2.10;99.90;;;;;;4344448;32;20485;-59
2021/04/03 02:21:38;;;;;;;4.90;2.40;;;2.10;99.90;;;;;;4337717;32;20085;-61
2021/04/03 02:24:05;;;;;;;5.75;2.70;;;2.10;99.90;;;;;;4349759;32;20073;-61
2021/04/03 02:26:37;;;;;;;3.72;2.53;;;2.10;99.90;;;;;;4349725;32;20165;-62
2021/04/03 02:29:05;;;;;;;4.30;2.00;;;2.00;99.90;;;;;;4337394;32;20149;-61
2021/04/03 02:31:35;;;;;;;3.75;2.58;;;2.00;99.90;;;;;;4337381;32;20156;-59
2021/04/03 02:34:03;;;;;;;3.17;2.40;;;2.00;99.90;;;;;;4337558;32;20093;-60
2021/04/03 02:36:29;;;;;;;5.80;2.45;;;2.20;99.90;;;;;;4334593;32;20066;-60
2021/04/03 02:38:55;;;;;;;5.65;2.53;;;2.40;99.90;;;;;;4337128;32;20117;-61
2021/04/03 02:41:35;;;;;;;4.15;2.30;;;2.40;99.90;;;;;;4346785;32;20485;-61
2021/04/03 02:44:19;;;;;;;4.20;2.78;;;2.40;99.90;;;;;;4331984;32;20075;-61
2021/04/03 02:47:07;;;;;;;4.75;2.40;;;2.50;99.90;;;;;;4346494;32;20086;-60
2021/04/03 02:49:52;;;;;;;4.35;2.40;;;2.50;99.90;;;;;;4327853;32;20210;-61
2021/04/03 02:52:18;;;;;;;3.78;2.22;;;2.50;99.90;;;;;;4322826;32;20082;-61
2021/04/03 02:54:44;;;;;;;3.78;2.60;;;2.50;99.90;;;;;;4342540;32;20073;-61
2021/04/03 02:57:13;;;;;;;3.60;2.53;;;2.50;99.90;;;;;;4332815;32;20078;-61
2021/04/03 02:59:43;;;;;;;4.30;2.67;;;2.50;99.90;;;;;;4334444;32;20082;-61
2021/04/03 03:02:09;;;;;;;4.03;2.65;;;2.60;99.90;;;;;;4339762;32;20074;-61
2021/04/03 03:04:37;;;;;;;4.45;2.53;;;2.60;99.90;;;;;;4330621;32;20149;-60
2021/04/03 03:07:04;;;;;;;3.30;2.10;;;2.60;99.90;;;;;;4333782;32;20077;-62
2021/04/03 03:09:31;;;;;;;3.65;2.47;;;2.60;99.90;;;;;;4337943;32;20493;-60
2021/04/03 03:11:58;;;;;;;5.03;2.40;;;2.60;99.90;;;;;;4327757;32;20158;-60
2021/04/03 03:14:25;;;;;;;3.80;2.42;;;2.60;99.90;;;;;;4331554;32;20084;-60
2021/04/03 03:16:52;;;;;;;5.97;2.60;;;2.60;99.90;;;;;;4348186;32;20155;-60
2021/04/03 03:19:18;;;;;;;5.20;2.70;;;2.70;99.90;;;;;;4339582;32;20074;-61
2021/04/03 03:21:44;;;;;;;3.83;2.35;;;2.70;99.90;;;;;;4327403;32;20067;-61
2021/04/03 03:24:11;;;;;;;4.07;2.67;;;2.80;99.90;;;;;;4327634;32;20062;-61
2021/04/03 03:26:38;;;;;;;4.47;2.60;;;2.80;99.90;;;;;;4339735;32;20153;-61
2021/04/03 03:29:06;;;;;;;4.20;2.40;;;2.90;99.90;;;;;;4339007;32;20078;-61
2021/04/03 03:31:33;;;;;;;4.60;2.70;;;2.90;99.90;;;;;;4337562;32;20066;-62
2021/04/03 03:33:59;;;;;;;4.65;2.33;;;2.90;99.90;;;;;;4316464;32;20165;-61
2021/04/03 03:36:27;;;;;;;3.97;2.33;;;3.00;99.90;;;;;;4332094;32;20066;-61
2021/04/03 03:38:53;;;;;;;4.05;2.67;;;3.10;99.90;;;;;;4339231;32;20081;-61
2021/04/03 03:41:21;;;;;;;5.12;2.45;;;3.10;99.90;;;;;;4364194;32;20075;-61
2021/04/03 03:43:47;;;;;;;7.78;2.90;;;3.20;99.90;;;;;;4340053;32;20070;-61
2021/04/03 03:46:14;;;;;;;4.18;2.50;;;3.20;99.90;;;;;;4330921;32;20077;-61
2021/04/03 03:48:40;;;;;;;6.07;2.50;;;3.30;99.90;;;;;;4324477;32;20067;-61
2021/04/03 03:51:06;;;;;;;4.97;3.00;;;3.30;99.90;;;;;;4336712;32;20532;-61
2021/04/03 03:53:32;;;;;;;4.68;2.58;;;3.40;99.90;;;;;;4377383;32;20067;-61
2021/04/03 03:55:59;;;;;;;5.37;2.50;;;3.50;99.90;;;;;;4339227;32;20154;-60
2021/04/03 03:58:25;;;;;;;4.25;2.70;;;3.50;99.90;;;;;;4339479;32;20128;-61
2021/04/03 04:00:52;;;;;;;4.93;2.30;;;3.60;99.90;;;;;;4364083;32;20187;-60
2021/04/03 04:03:18;;;;;;;5.82;2.45;;;3.70;99.90;;;;;;4363752;32;20101;-61
2021/04/03 04:05:44;;;;;;;4.78;2.80;;;3.80;99.90;;;;;;4351048;32;20145;-61
2021/04/03 04:08:10;;;;;;;5.18;2.40;;;3.70;99.90;;;;;;4331866;32;20536;-60
2021/04/03 04:10:37;;;;;;;6.37;2.20;;;3.80;99.90;;;;;;4333733;32;20165;-61
2021/04/03 04:13:03;;;;;;;3.92;2.37;;;3.80;99.90;;;;;;4350060;32;20077;-61
2021/04/03 04:15:29;;;;;;;4.97;2.70;;;3.80;99.90;;;;;;4363637;32;20092;-61
2021/04/03 04:17:56;;;;;;;5.15;2.33;;;3.90;99.90;;;;;;4339117;32;20098;-60
2021/04/03 04:20:22;;;;;;;5.68;2.50;;;4.00;99.90;;;;;;4338719;32;20113;-61
2021/04/03 04:22:48;;;;;;;6.12;2.70;;;4.00;99.90;;;;;;4350762;32;20085;-60
2021/04/03 04:25:14;;;;;;;3.28;2.12;;;4.10;99.90;;;;;;4351102;32;20077;-60
2021/04/03 04:27:41;;;;;;;4.18;2.37;;;4.10;99.90;;;;;;4338709;32;20073;-61
2021/04/03 04:30:12;;;;;;;3.87;2.20;;;4.10;99.90;;;;;;4350817;32;20071;-60
2021/04/03 04:32:39;;;;;;;4.97;2.37;;;4.20;99.90;;;;;;4351980;32;20192;-60
2021/04/03 04:35:08;;;;;;;5.53;2.65;;;4.40;99.90;;;;;;4339233;32;20116;-61
2021/04/03 04:37:35;;;;;;;4.28;2.70;;;4.40;99.90;;;;;;4338237;32;20074;-62
2021/04/03 04:40:01;;;;;;;4.78;2.60;;;4.40;99.90;;;;;;4351032;32;20101;-61
2021/04/03 04:42:27;;;;;;;4.82;2.70;;;4.50;99.90;;;;;;4363401;32;20081;-61
2021/04/03 04:44:53;;;;;;;5.45;2.83;;;4.50;99.90;;;;;;4338381;32;20154;-61
2021/04/03 04:47:19;;;;;;;5.68;2.90;;;4.50;99.90;;;;;;4349889;32;20158;-60
2021/04/03 04:49:46;;;;;;;5.72;3.10;;;4.70;99.90;;;;;;4363134;32;20074;-61
2021/04/03 04:52:12;;;;;;;5.28;3.05;;;4.70;99.90;;;;;;4369431;32;20481;-61
2021/04/03 04:54:38;;;;;;;6.28;3.08;;;4.70;99.90;;;;;;4330997;32;20116;-61
2021/04/03 04:57:05;;;;;;;3.97;2.58;;;4.90;99.90;;;;;;4353445;32;20086;-62
2021/04/03 04:59:32;;;;;;;5.35;2.53;;;4.80;99.90;;;;;;4350874;32;20520;-61
2021/04/03 05:01:58;;;;;;;6.07;2.83;;;6.00;99.90;;;;;;4338242;32;20085;-60
2021/04/03 05:04:24;;;;;;;5.12;2.83;;;7.20;99.90;;;;;;4314190;32;20074;-61
2021/04/03 05:06:50;;;;;;;9.65;2.35;;;7.00;99.90;;;;;;4338142;32;20098;-62
2021/04/03 05:09:16;;;;;;;6.43;2.20;;;7.40;99.90;;;;;;4325866;32;20062;-61
2021/04/03 05:11:42;;;;;;;5.35;2.72;;;7.30;99.90;;;;;;4322381;32;20082;-60
2021/04/03 05:14:09;;;;;;;4.97;2.35;;;8.10;99.90;;;;;;4337221;32;20086;-60
2021/04/03 05:16:35;;;;;;;4.70;2.70;;;7.80;87.20;;;;;;4345144;32;20104;-61
2021/04/03 05:19:01;;;;;;;4.80;2.47;;;8.50;81.60;;;;;;4323548;32;20085;-61
2021/04/03 05:21:27;;;;;;;11.80;3.00;;;8.30;81.90;;;;;;4350148;32;20069;-60
2021/04/03 05:23:53;;;;;;;7.20;2.85;;;8.00;82.30;;;;;;4363022;32;20077;-60
2021/04/03 05:26:20;;;;;;;5.03;2.65;;;8.00;83.40;;;;;;4352599;32;20074;-60
2021/04/03 05:28:46;;;;;;;3.78;2.22;;;8.40;82.80;;;;;;4352308;32;20452;-61
2021/04/03 05:31:12;;;;;;;4.30;2.20;;;8.40;80.30;;;;;;4350362;32;20089;-62
2021/04/03 05:33:38;;;;;;;5.82;2.60;;;8.20;83.80;;;;;;4325042;32;20096;-61
2021/04/03 05:36:05;;;;;;;6.07;2.58;;;8.20;81.40;;;;;;4350111;32;20508;-60
2021/04/03 05:38:31;;;;;;;8.23;3.00;;;8.10;83.40;;;;;;4373990;32;20078;-61
2021/04/03 05:40:58;;;;;;;4.60;2.47;;;9.10;77.80;;;;;;4350286;32;20151;-59
2021/04/03 05:43:24;;;;;;;4.12;2.35;;;8.70;76.60;;;;;;4337441;32;20179;-60
2021/04/03 05:45:53;;;;;;;3.28;2.08;;;8.00;82.50;;;;;;4325853;32;20076;-59
2021/04/03 05:48:22;;;;;;;5.75;2.60;;;8.10;81.20;;;;;;4323245;32;20086;-60
2021/04/03 05:50:56;;;;;;;7.80;2.20;;;9.10;78.20;;;;;;4334795;32;20121;-63
2021/04/03 05:53:25;;;;;;;4.10;1.92;;;9.30;74.80;;;;;;4319356;32;20093;-59
2021/04/03 05:55:53;;;;;;;4.50;2.60;;;9.20;75.20;;;;;;4344239;32;20463;-61
2021/04/03 05:58:20;;;;;;;3.45;1.75;;;9.50;75.40;;;;;;4348005;32;21104;-56
2021/04/03 06:00:46;;;;;;;4.68;1.95;;;8.80;75.10;;;;;;4360925;32;20154;-60
2021/04/03 06:03:15;;;;;;;4.12;1.98;;;9.30;75.40;;;;;;4356966;32;20074;-59
2021/04/03 06:05:43;;;;;;;5.25;2.20;;;9.40;72.30;;;;;;4335031;32;20098;-61
2021/04/03 06:08:10;;;;;;;16.33;2.95;;;8.80;76.40;;;;;;4333397;32;20160;-59
2021/04/03 06:10:36;;;;;;;3.67;2.20;;;9.10;73.10;;;;;;4337868;32;20078;-58
2021/04/03 06:13:03;;;;;;;3.80;2.50;;;9.00;72.90;;;;;;4368838;32;20065;-58
2021/04/03 06:15:32;;;;;;;5.28;1.95;;;10.20;67.90;;;;;;4351454;32;20096;-58
2021/04/03 06:17:59;;;;;;;2.67;0.85;;;8.20;77.10;;;;;;4366783;32;20101;-60
2021/04/03 06:20:36;;;;;;;4.97;2.47;;;7.90;79.50;;;;;;4359818;32;20147;-58
2021/04/03 06:23:03;;;;;;;;;;;7.20;85.10;;;;;;4344905;32;20082;-58
2021/04/03 06:25:29;;;;;;;4.35;1.92;;;7.60;84.60;;;;;;4363595;32;19988;-58
2021/04/03 06:28:08;;;;;;;2.22;1.27;;;7.30;85.90;;;;;;4349445;32;20070;-58
2021/04/03 06:30:37;;;;;;;5.35;2.15;;;7.20;87.50;;;;;;4361499;32;20211;-59
2021/04/03 06:33:17;;;;;;;5.53;2.00;;;7.40;86.80;;;;;;4375659;32;20066;-58
2021/04/03 06:35:44;;;;;;;5.00;2.28;;;7.80;85.40;;;;;;4357191;32;20100;-58
2021/04/03 06:38:24;;;;;;;8.45;2.78;;;8.50;81.60;;;;;;4380084;32;20073;-58
2021/04/03 06:40:50;;;;;;;6.10;2.42;;;7.80;84.30;;;;;;4366273;32;20169;-58
2021/04/03 06:43:17;;;;;;;5.30;2.30;;;8.20;82.10;;;;;;4356326;32;20092;-58
2021/04/03 06:45:45;;;;;;;4.03;2.05;;;8.10;81.80;;;;;;4364132;32;20070;-62
2021/04/03 06:48:14;;;;;;;3.10;2.28;;;7.90;83.40;;;;;;4358094;32;20074;-60
2021/04/03 06:51:05;;;;;;;5.70;2.25;;;8.20;81.30;;;;;;4365773;32;20122;-58
2021/04/03 06:53:31;;;;;;;7.47;2.17;;;7.90;83.00;;;;;;4338114;32;20097;-59
2021/04/03 06:55:57;;;;;;;3.53;1.85;;;8.10;82.70;;;;;;4337554;32;20085;-60
2021/04/03 06:58:23;;;;;;;5.82;1.95;;;8.00;83.50;;;;;;4338444;32;20078;-60
2021/04/03 07:00:49;;;;;;;4.45;2.20;;;8.30;81.00;;;;;;4337536;32;20163;-61
2021/04/03 07:03:21;;;;;;;4.95;1.98;;;8.50;80.10;;;;;;4347540;32;20158;-59
2021/04/03 07:05:47;;;;;;;5.75;2.42;;;8.40;80.40;;;;;;4352083;32;20512;-57
2021/04/03 07:08:13;;;;;;;5.43;2.50;;;8.50;79.60;;;;;;4358005;32;20143;-57
2021/04/03 07:10:40;;;;;;;2.22;1.92;;;8.50;78.90;;;;;;4339654;32;20062;-60
2021/04/03 07:13:07;;;;;;;5.12;2.30;;;8.30;79.40;;;;;;4362216;32;20077;-59
2021/04/03 07:15:33;;;;;;;6.93;2.28;;;8.30;80.20;;;;;;4338570;32;20153;-62
2021/04/03 07:17:59;;;;;;;3.28;1.95;;;8.60;78.90;;;;;;4353529;32;20078;-59
2021/04/03 07:20:27;;;;;;;5.82;2.20;;;9.00;76.60;;;;;;4346238;32;20113;-59
2021/04/03 07:23:02;;;;;;;6.87;2.03;;;8.70;77.80;;;;;;4321228;32;20441;-59
2021/04/03 07:25:38;;;;;;;8.07;2.20;;;8.70;79.50;;;;;;4342974;32;20081;-57
2021/04/03 07:28:05;;;;;;;3.17;1.67;;;8.50;78.60;;;;;;4347594;32;20115;-60
2021/04/03 07:30:40;;;;;;;2.67;1.30;;;8.70;77.20;;;;;;4349711;32;20141;-58
2021/04/03 07:33:19;;;;;;;5.28;2.03;;;8.00;81.60;;;;;;4350567;32;20075;-61
2021/04/03 07:36:02;;;;;;;3.37;1.70;;;8.30;81.00;;;;;;4350107;32;20092;-60
2021/04/03 07:38:35;;;;;;;3.42;1.80;;;8.10;81.20;;;;;;4338086;32;20081;-59
2021/04/03 07:41:11;;;;;;;5.35;2.72;;;8.10;82.40;;;;;;4352868;32;20065;-61
2021/04/03 07:43:38;;;;;;;;;;;8.20;81.50;;;;;;4362976;32;20437;-60
2021/04/03 07:46:13;;;;;;;4.57;2.22;;;8.20;80.90;;;;;;4362989;32;19992;-58
2021/04/03 07:48:45;;;;;;;4.30;2.00;;;8.50;79.80;;;;;;4355245;32;20448;-60
2021/04/03 07:51:14;;;;;;;6.03;3.20;;;8.20;78.90;;;;;;4349258;32;20150;-60
2021/04/03 07:53:47;;;;;;;5.47;1.92;;;8.40;80.40;;;;;;4338141;32;20522;-60
2021/04/03 07:56:17;;;;;;;8.38;2.70;;;8.80;77.90;;;;;;4338316;32;20098;-59
2021/04/03 07:58:53;;;;;;;6.43;2.40;;;9.00;76.50;;;;;;4361163;32;20086;-59
2021/04/03 08:01:24;;;;;;;5.87;2.10;;;9.00;77.80;;;;;;4355795;32;20074;-59
2021/04/03 08:03:57;;;;;;;7.03;2.65;;;9.50;75.40;;;;;;4338942;32;20166;-60
2021/04/03 08:06:34;;;;;;;7.97;2.87;;;9.30;75.30;;;;;;4338833;32;20070;-60
2021/04/03 08:09:18;;;;;;;4.35;2.10;;;8.90;75.80;;;;;;4363868;32;20481;-60
2021/04/03 08:11:47;;;;;;;10.77;2.58;;;9.20;74.70;;;;;;4338655;32;20074;-60
2021/04/03 08:14:15;;;;;;;5.37;2.40;;;9.20;75.80;;;;;;4317375;32;20066;-60
2021/04/03 08:16:42;;;;;;;4.65;2.03;;;8.70;77.00;;;;;;4351308;32;20147;-59
2021/04/03 08:19:08;;;;;;;6.93;2.35;;;8.70;77.20;;;;;;4338501;32;20516;-60
2021/04/03 08:21:47;;;;;;;10.55;2.55;;;9.00;77.60;;;;;;4336677;32;20157;-59
2021/04/03 08:24:15;;;;;;;4.30;2.03;;;9.20;75.10;;;;;;4351166;32;20070;-58
2021/04/03 08:26:42;;;;;;;4.32;2.40;;;8.90;74.90;;;;;;4360371;32;20088;-59
2021/04/03 08:29:21;;;;;;;6.47;2.45;;;8.60;76.60;;;;;;4339552;32;20090;-59
2021/04/03 08:31:51;;;;;;;8.80;2.62;;;8.70;77.30;;;;;;4340978;32;20077;-60
2021/04/03 08:34:17;;;;;;;7.20;2.47;;;9.00;75.80;;;;;;4363814;32;20485;-60
2021/04/03 08:36:43;;;;;;;3.47;2.20;;;8.90;74.30;;;;;;4338229;32;20089;-60
2021/04/03 08:39:12;;;;;;;4.03;2.53;;;8.80;75.80;;;;;;4338662;32;20066;-60
2021/04/03 08:41:41;;;;;;;7.62;2.62;;;9.20;73.90;;;;;;4350384;32;20101;-59
2021/04/03 08:44:25;;;;;;;5.87;3.12;;;9.00;74.50;;;;;;4338410;32;20066;-59
2021/04/03 08:46:54;;;;;;;4.62;2.15;;;9.20;74.80;;;;;;4349260;32;20170;-58
2021/04/03 08:49:35;;;;;;;4.93;2.17;;;9.40;74.40;;;;;;4336129;32;20165;-60
2021/04/03 08:52:06;;;;;;;4.32;2.30;;;9.10;75.10;;;;;;4350904;32;20507;-59
2021/04/03 08:54:40;;;;;;;6.90;2.75;;;9.40;72.70;;;;;;4351189;32;20081;-60
2021/04/03 08:57:27;;;;;;;6.87;2.62;;;8.90;74.20;;;;;;4363455;32;20066;-59
2021/04/03 09:00:00;;;;;;;4.60;2.30;;;8.90;74.90;;;;;;4338109;32;20674;-58
2021/04/03 09:02:27;;;;;;;6.57;2.35;;;9.20;73.80;;;;;;4338890;32;20108;-60
2021/04/03 09:04:53;;;;;;;5.55;2.20;;;9.00;73.70;;;;;;4350921;32;20074;-59
2021/04/03 09:07:32;;;;;;;5.80;2.80;;;9.50;72.70;;;;;;4335207;32;20074;-60
2021/04/03 09:10:19;;;;;;;7.12;2.55;;;9.10;72.80;;;;;;4343815;32;20070;-59
2021/04/03 09:12:46;;;;;;;;;;;9.40;73.00;;;;;;4339984;32;20086;-60
2021/04/03 09:15:13;;;;;;;;;;;9.50;72.50;;;;;;4344613;32;19982;-60
2021/04/03 09:18:08;;;;;;;6.93;2.87;;;9.90;71.70;;;;;;4341885;32;19969;-60
2021/04/03 09:20:47;;;;;;;5.18;2.75;;;9.80;70.70;;;;;;4362383;32;20114;-60
2021/04/03 09:23:13;;;;;;;4.50;2.22;;;9.60;71.00;;;;;;4315578;32;20058;-58
2021/04/03 09:25:40;;;;;;;8.93;2.60;;;9.90;69.90;;;;;;4342009;32;20177;-59
2021/04/03 09:28:12;;;;;;;8.00;2.80;;;9.40;70.90;;;;;;4347415;32;20169;-57
2021/04/03 09:30:41;;;;;;;6.45;2.83;;;9.60;71.60;;;;;;4360214;32;20070;-59
2021/04/03 09:33:25;;;;;;;8.40;2.65;;;9.90;70.60;;;;;;4337971;32;20140;-58
2021/04/03 09:35:53;;;;;;;5.65;2.30;;;9.90;69.80;;;;;;4362540;32;20106;-58
2021/04/03 09:38:37;;;;;;;4.40;2.30;;;9.40;71.90;;;;;;4362062;32;20169;-57
2021/04/03 09:41:23;;;;;;;5.10;2.47;;;9.50;71.70;;;;;;4353334;32;20061;-58
2021/04/03 09:43:49;;;;;;;3.87;2.30;;;9.50;71.30;;;;;;4360331;32;20153;-60
2021/04/03 09:46:16;;;;;;;5.57;2.05;;;9.70;70.50;;;;;;4347370;32;20154;-59
2021/04/03 09:48:44;;;;;;;2.78;1.90;;;9.00;73.80;;;;;;4352706;32;20232;-58
2021/04/03 09:51:11;;;;;;;3.97;1.67;;;9.00;74.60;;;;;;4362416;32;20153;-59
2021/04/03 09:53:37;;;;;;;2.25;1.85;;;9.00;73.90;;;;;;4346427;32;20089;-60
2021/04/03 09:56:04;;;;;;;3.62;2.50;;;8.90;75.20;;;;;;4350362;32;20074;-59
2021/04/03 09:58:31;;;;;;;3.12;2.10;;;9.00;74.70;;;;;;4347807;32;20471;-59
2021/04/03 10:00:57;;;;;;;3.33;1.80;;;9.20;74.00;;;;;;4349769;32;20071;-60
2021/04/03 10:03:23;;;;;;;4.60;2.12;;;9.20;74.50;;;;;;4362291;32;20475;-59
2021/04/03 10:05:50;;;;;;;4.72;2.22;;;9.20;73.90;;;;;;4338069;32;20065;-59
2021/04/03 10:08:16;;;;;;;3.70;2.20;;;9.60;72.20;;;;;;4375547;32;20094;-59
2021/04/03 10:10:42;;;;;;;6.87;2.00;;;9.50;73.30;;;;;;4362007;32;20081;-59
2021/04/03 10:13:09;;;;;;;5.47;2.17;;;9.70;72.00;;;;;;4356018;32;20097;-59
2021/04/03 10:15:38;;;;;;;9.57;2.33;;;9.80;71.60;;;;;;4335078;32;20073;-59
2021/04/03 10:18:04;;;;;;;5.60;2.08;;;10.10;69.50;;;;;;4347265;32;20082;-59
2021/04/03 10:20:31;;;;;;;8.27;2.22;;;10.00;69.60;;;;;;4346015;32;20453;-59
2021/04/03 10:22:57;;;;;;;4.70;1.37;;;10.00;69.80;;;;;;4352987;32;20087;-61
2021/04/03 10:25:23;;;;;;;3.65;1.87;;;10.40;71.40;;;;;;4340581;32;20132;-59
2021/04/03 10:27:50;;;;;;;8.40;2.72;;;10.30;69.00;;;;;;4357444;32;20434;-58
2021/04/03 10:30:17;;;;;;;5.97;2.37;;;10.40;69.90;;;;;;4340052;32;20070;-61
2021/04/03 10:32:44;;;;;;;3.72;2.25;;;10.40;68.70;;;;;;4340339;32;20142;-59
2021/04/03 10:35:10;;;;;;;3.78;1.98;;;10.40;69.00;;;;;;4352782;32;20158;-60
2021/04/03 10:37:36;;;;;;;4.82;1.92;;;9.60;72.00;;;;;;4352296;32;20593;-59
2021/04/03 10:40:04;;;;;;;5.65;2.00;;;9.70;71.40;;;;;;4352105;32;20457;-61
2021/04/03 10:42:30;;;;;;;6.43;2.17;;;9.90;70.70;;;;;;4353535;32;20065;-59
2021/04/03 10:44:56;;;;;;;4.12;2.30;;;9.90;69.00;;;;;;4360844;32;20449;-59
2021/04/03 10:47:22;;;;;;;5.25;2.30;;;9.70;69.70;;;;;;4371136;32;20077;-59
2021/04/03 10:49:49;;;;;;;3.10;2.10;;;9.90;68.70;;;;;;4354855;32;20167;-59
2021/04/03 10:52:15;;;;;;;3.92;1.90;;;9.50;69.50;;;;;;4329135;32;20497;-60
2021/04/03 10:54:41;;;;;;;3.80;1.80;;;9.40;68.00;;;;;;4352459;32;20069;-59
2021/04/03 10:57:08;;;;;;;4.15;1.70;;;9.50;69.60;;;;;;4327569;32;20254;-58
2021/04/03 10:59:34;;;;;;;4.35;2.08;;;10.00;68.10;;;;;;4340292;32;20073;-59
2021/04/03 11:02:00;;;;;;;3.92;2.05;;;10.20;67.10;;;;;;4352313;32;20082;-59
2021/04/03 11:04:26;;;;;;;3.83;1.92;;;10.20;65.60;;;;;;4362972;32;20457;-60
2021/04/03 11:06:54;;;;;;;6.68;2.25;;;10.20;64.20;;;;;;4337314;32;20062;-60
2021/04/03 11:09:20;;;;;;;3.33;2.20;;;10.20;64.10;;;;;;4337149;32;20070;-59
2021/04/03 11:11:46;;;;;;;5.30;1.85;;;10.20;64.40;;;;;;4358665;32;20160;-60
2021/04/03 11:14:12;;;;;;;2.90;1.50;;;10.50;64.30;;;;;;4356190;32;20065;-60
2021/04/03 11:16:38;;;;;;;2.90;1.50;;;10.20;63.50;;;;;;4364212;32;20489;-59
2021/04/03 11:19:04;;;;;;;5.82;2.20;;;9.90;63.30;;;;;;4364262;32;20080;-60
2021/04/03 11:21:31;;;;;;;3.25;2.10;;;9.80;64.20;;;;;;4338217;32;20074;-60
2021/04/03 11:23:57;;;;;;;2.87;1.87;;;9.80;64.40;;;;;;4339416;32;20061;-60
2021/04/03 11:26:23;;;;;;;5.05;2.00;;;9.90;64.50;;;;;;4364178;32;20073;-59
2021/04/03 11:28:49;;;;;;;5.40;2.20;;;10.00;62.90;;;;;;4379048;32;20070;-58
2021/04/03 11:31:15;;;;;;;2.33;1.60;;;10.20;62.90;;;;;;4340565;32;20520;-57
2021/04/03 11:33:42;;;;;;;5.05;2.20;;;9.70;63.60;;;;;;4364957;32;20069;-58
2021/04/03 11:36:08;;;;;;;10.10;2.17;;;9.70;62.50;;;;;;4352386;32;20464;-59
2021/04/03 11:38:34;;;;;;;6.05;1.83;;;9.70;62.30;;;;;;4348381;32;20465;-59
2021/04/03 11:41:01;;;;;;;6.53;2.00;;;9.90;63.20;;;;;;4368229;32;20143;-60
2021/04/03 11:43:27;;;;;;;5.03;1.70;;;9.80;59.80;;;;;;4343870;32;20082;-61
2021/04/03 11:45:53;;;;;;;4.80;1.80;;;9.90;60.40;;;;;;4349366;32;20063;-59
2021/04/03 11:48:20;;;;;;;9.00;1.85;;;10.20;58.30;;;;;;4375051;32;20493;-60
2021/04/03 11:50:46;;;;;;;6.43;1.90;;;10.10;57.50;;;;;;4363469;32;20146;-60
2021/04/03 11:53:14;;;;;;;3.45;1.73;;;9.80;57.90;;;;;;4357356;32;20448;-59
2021/04/03 11:55:41;;;;;;;7.97;2.05;;;10.00;57.70;;;;;;4339036;32;20476;-60
2021/04/03 11:58:07;;;;;;;5.47;1.50;;;9.90;57.10;;;;;;4364260;32;20077;-60
2021/04/03 12:00:34;;;;;;;4.82;1.92;;;10.10;56.60;;;;;;4351665;32;20183;-60
2021/04/03 12:03:00;;;;;;;4.82;1.98;;;10.20;56.60;;;;;;4364144;32;20082;-60
2021/04/03 12:05:26;;;;;;;6.72;2.35;;;10.20;55.20;;;;;;4363996;32;20085;-60
2021/04/03 12:07:53;;;;;;;7.87;1.70;;;10.10;56.00;;;;;;4363417;32;20069;-60
2021/04/03 12:10:19;;;;;;;3.37;1.70;;;10.70;55.20;;;;;;4351208;32;20074;-60
2021/04/03 12:12:45;;;;;;;4.78;1.70;;;10.50;54.40;;;;;;4363807;32;20078;-59
2021/04/03 12:15:13;;;;;;;4.32;1.80;;;10.60;55.10;;;;;;4337240;32;20170;-59
2021/04/03 12:17:39;;;;;;;7.32;2.28;;;10.80;54.70;;;;;;4333997;32;20092;-59
2021/04/03 12:20:08;;;;;;;6.57;1.92;;;10.50;54.50;;;;;;4326944;32;20478;-60
2021/04/03 12:22:35;;;;;;;5.60;1.65;;;10.30;55.30;;;;;;4324657;32;20091;-60
2021/04/03 12:25:02;;;;;;;4.32;1.30;;;10.40;55.30;;;;;;4351510;32;20145;-58
2021/04/03 12:27:28;;;;;;;5.05;1.73;;;10.50;55.30;;;;;;4351533;32;20512;-61
2021/04/03 12:29:54;;;;;;;4.53;1.50;;;10.30;56.10;;;;;;4363321;32;20462;-58
2021/04/03 12:32:20;;;;;;;6.87;1.77;;;10.20;56.30;;;;;;4350802;32;20508;-60
2021/04/03 12:34:47;;;;;;;6.60;2.08;;;10.10;57.50;;;;;;4326246;32;20558;-59
2021/04/03 12:37:17;;;;;;;9.25;2.33;;;10.30;57.50;;;;;;4350432;32;20194;-60
2021/04/03 12:39:43;;;;;;;5.03;1.85;;;10.60;56.30;;;;;;4351579;32;20145;-60
2021/04/03 12:42:10;;;;;;;3.28;1.92;;;10.80;55.70;;;;;;4350349;32;20493;-59
2021/04/03 12:44:36;;;;;;;6.72;2.05;;;10.10;57.20;;;;;;4351317;32;20074;-60
2021/04/03 12:47:03;;;;;;;6.28;2.00;;;10.20;58.70;;;;;;4351395;32;20086;-60
2021/04/03 12:49:29;;;;;;;3.70;1.70;;;10.10;59.30;;;;;;4325084;32;20104;-61
2021/04/03 12:51:55;;;;;;;6.72;1.92;;;10.00;59.10;;;;;;4350850;32;20066;-60
2021/04/03 12:54:22;;;;;;;5.95;2.25;;;10.00;58.60;;;;;;4326371;32;20062;-59
2021/04/03 12:56:49;;;;;;;3.58;1.62;;;10.20;58.50;;;;;;4351018;32;20067;-60
2021/04/03 12:59:15;;;;;;;5.25;1.95;;;9.90;59.30;;;;;;4362900;32;20120;-60
2021/04/03 13:01:42;;;;;;;5.82;1.80;;;10.20;59.00;;;;;;4350607;32;20066;-58
2021/04/03 13:04:08;;;;;;;5.97;1.90;;;10.20;59.50;;;;;;4325918;32;20124;-60